Time;durP1;ratioP1;P1;durP2;ratioP2;P2;SDS_P1;SDS_P2;PMS_P1;PMS_P2;Temp;Humidity;BMP_temperature;BMP_pressure;BME280_temperature;BME280_humidity;BME280_pressure;Samples;Min_cycle;Max_cycle;Signal;HPM_P1;HPM_P2
2021/08/29 00:04:47;;;;;;;1.20;1.03;;;;;;;;;;10247128;28;20035;-85
2021/08/29 00:09:47;;;;;;;1.40;1.20;;;;;;;;;;10247043;28;20116;-92
2021/08/29 00:14:48;;;;;;;2.50;1.20;;;;;;;;;;10245239;29;20475;-87
2021/08/29 00:19:48;;;;;;;2.67;1.10;;;;;;;;;;10231692;29;20036;-86
2021/08/29 00:24:49;;;;;;;1.20;1.10;;;;;;;;;;10249594;28;20063;-88
2021/08/29 00:29:49;;;;;;;1.43;1.20;;;;;;;;;;10278005;28;20441;-87
2021/08/29 00:34:49;;;;;;;1.53;0.90;;;;;;;;;;10270539;29;20031;-86
2021/08/29 00:39:50;;;;;;;3.50;1.23;;;;;;;;;;10269556;29;20050;-90
2021/08/29 00:44:50;;;;;;;1.90;1.40;;;;;;;;;;10270419;28;20038;-88
2021/08/29 00:49:51;;;;;;;1.00;0.90;;;;;;;;;;10256009;29;20035;-86
2021/08/29 00:54:51;;;;;;;3.60;1.00;;;;;;;;;;10268703;28;20039;-82
2021/08/29 00:59:52;;;;;;;5.37;1.07;;;;;;;;;;10269876;28;20043;-84
2021/08/29 01:05:04;;;;;;;2.72;1.23;;;;;;;;;;10285134;28;20042;-85
2021/08/29 01:10:11;;;;;;;1.67;0.70;;;;;;;;;;10270992;28;20032;-87
2021/08/29 01:15:12;;;;;;;1.10;1.00;;;;;;;;;;10284398;28;20035;-91
2021/08/29 01:20:18;;;;;;;1.27;1.17;;;;;;;;;;10270240;28;20043;-87
2021/08/29 01:25:25;;;;;;;1.70;0.82;;;;;;;;;;10269146;28;20095;-87
2021/08/29 01:30:26;;;;;;;1.50;1.00;;;;;;;;;;10282587;28;20043;-88
2021/08/29 01:35:27;;;;;;;0.65;0.65;;;;;;;;;;10255972;29;20067;-87
2021/08/29 01:40:28;;;;;;;4.68;1.20;;;;;;;;;;10267609;28;20043;-86
2021/08/29 01:45:28;;;;;;;1.80;0.80;;;;;;;;;;10254758;28;20106;-85
2021/08/29 01:50:29;;;;;;;1.45;0.98;;;;;;;;;;10269937;28;20039;-86
2021/08/29 01:55:29;;;;;;;2.35;1.00;;;;;;;;;;10267799;28;20042;-84
2021/08/29 02:00:32;;;;;;;1.20;1.00;;;;;;;;;;10254813;28;20393;-86
2021/08/29 02:05:33;;;;;;;1.23;0.98;;;;;;;;;;10270489;28;20122;-87
2021/08/29 02:10:34;;;;;;;1.42;0.90;;;;;;;;;;10283050;28;20486;-88
2021/08/29 02:15:39;;;;;;;2.35;1.05;;;;;;;;;;10269383;28;20046;-86
2021/08/29 02:20:39;;;;;;;1.10;0.90;;;;;;;;;;10275387;28;20046;-85
2021/08/29 02:25:40;;;;;;;1.17;0.82;;;;;;;;;;10257208;28;20044;-87
2021/08/29 02:30:42;;;;;;;1.35;0.90;;;;;;;;;;10277006;28;20118;-85
2021/08/29 02:35:43;;;;;;;1.50;1.05;;;;;;;;;;10252200;29;20547;-84
2021/08/29 02:40:44;;;;;;;2.20;1.30;;;;;;;;;;10240556;29;20079;-89
2021/08/29 02:45:45;;;;;;;1.10;0.80;;;;;;;;;;10265962;29;20035;-86
2021/08/29 02:50:46;;;;;;;2.13;1.10;;;;;;;;;;10238709;29;20043;-87
2021/08/29 02:55:48;;;;;;;1.70;1.00;;;;;;;;;;10251665;29;20462;-87
2021/08/29 03:00:48;;;;;;;1.05;0.90;;;;;;;;;;10253173;29;20115;-86
2021/08/29 03:05:49;;;;;;;1.40;0.80;;;;;;;;;;10265216;29;20063;-87
2021/08/29 03:10:49;;;;;;;1.13;0.88;;;;;;;;;;10265120;29;20054;-88
2021/08/29 03:15:50;;;;;;;1.03;0.90;;;;;;;;;;10265041;28;20046;-91
2021/08/29 03:20:51;;;;;;;2.03;0.63;;;;;;;;;;10255673;29;20461;-89
2021/08/29 03:25:51;;;;;;;2.53;1.45;;;;;;;;;;10272777;28;20039;-84
2021/08/29 03:30:52;;;;;;;1.95;0.80;;;;;;;;;;10260035;29;20031;-83
2021/08/29 03:35:54;;;;;;;1.98;1.00;;;;;;;;;;10246166;29;20147;-85
2021/08/29 03:40:56;;;;;;;1.80;0.90;;;;;;;;;;10272005;29;20044;-85
2021/08/29 03:45:56;;;;;;;3.63;0.93;;;;;;;;;;10272837;29;20046;-87
2021/08/29 03:50:57;;;;;;;1.02;0.85;;;;;;;;;;10271732;29;20557;-87
2021/08/29 03:55:58;;;;;;;1.25;0.90;;;;;;;;;;10271671;29;20075;-83
2021/08/29 04:00:58;;;;;;;1.92;0.95;;;;;;;;;;10257958;29;20397;-90
2021/08/29 04:06:00;;;;;;;1.10;0.73;;;;;;;;;;10270750;29;20043;-86
2021/08/29 04:11:01;;;;;;;0.70;0.70;;;;;;;;;;10271264;29;20039;-87
2021/08/29 04:16:02;;;;;;;0.90;0.90;;;;;;;;;;10256821;29;20441;-84
2021/08/29 04:21:03;;;;;;;1.52;0.80;;;;;;;;;;10270905;29;20126;-83
2021/08/29 04:26:04;;;;;;;0.80;0.80;;;;;;;;;;10258387;29;20059;-91
2021/08/29 04:31:12;;;;;;;1.90;0.88;;;;;;;;;;10259813;29;20043;-83
2021/08/29 04:36:13;;;;;;;1.85;1.75;;;;;;;;;;10264218;29;20035;-84
2021/08/29 04:41:13;;;;;;;3.33;1.70;;;;;;;;;;10248228;29;20047;-86
2021/08/29 04:46:15;;;;;;;4.88;4.47;;;;;;;;;;10269175;29;20426;-83
2021/08/29 04:51:15;;;;;;;4.03;3.80;;;;;;;;;;10269414;29;20054;-81
2021/08/29 04:56:15;;;;;;;4.13;3.70;;;;;;;;;;10270220;29;20027;-89
2021/08/29 05:01:17;;;;;;;1.20;1.00;;;;;;;;;;10269798;29;20043;-86
2021/08/29 05:06:17;;;;;;;1.38;1.00;;;;;;;;;;10269236;29;20050;-84
2021/08/29 05:11:17;;;;;;;0.70;0.70;;;;;;;;;;10267823;29;20058;-88
2021/08/29 05:16:18;;;;;;;5.03;1.03;;;;;;;;;;10243657;29;20043;-90
2021/08/29 05:21:18;;;;;;;1.10;1.00;;;;;;;;;;10268775;29;20073;-90
2021/08/29 05:26:19;;;;;;;1.20;0.95;;;;;;;;;;10268875;29;20110;-84
2021/08/29 05:31:19;;;;;;;1.33;0.90;;;;;;;;;;10255526;29;20544;-84
2021/08/29 05:36:19;;;;;;;1.83;0.90;;;;;;;;;;10262340;29;20067;-89
2021/08/29 05:41:20;;;;;;;0.83;0.77;;;;;;;;;;10260825;28;20055;-82
2021/08/29 05:46:20;;;;;;;3.10;1.10;;;;;;;;;;10268382;29;20047;-85
2021/08/29 05:51:21;;;;;;;4.93;1.13;;;;;;;;;;10251208;29;20062;-87
2021/08/29 05:56:21;;;;;;;2.83;0.90;;;;;;;;;;10270531;29;20445;-84
2021/08/29 06:01:22;;;;;;;1.17;0.93;;;;;;;;;;10255537;29;20039;-83
2021/08/29 06:06:22;;;;;;;2.72;1.10;;;;;;;;;;10254420;29;20440;-86
2021/08/29 06:11:22;;;;;;;1.50;1.30;;;;;;;;;;10255212;29;20032;-88
2021/08/29 06:16:23;;;;;;;1.93;1.10;;;;;;;;;;10265845;29;20075;-84
2021/08/29 06:21:24;;;;;;;1.33;0.90;;;;;;;;;;10252570;29;20054;-83
2021/08/29 06:26:24;;;;;;;1.95;0.95;;;;;;;;;;10265951;29;20042;-85
2021/08/29 06:31:25;;;;;;;4.50;0.97;;;;;;;;;;10237468;29;20078;-87
2021/08/29 06:36:25;;;;;;;2.03;1.43;;;;;;;;;;10230684;29;20158;-88
2021/08/29 06:41:26;;;;;;;2.93;1.53;;;;;;;;;;10256458;29;20501;-87
2021/08/29 06:46:26;;;;;;;2.40;1.50;;;;;;;;;;10259080;29;20036;-83
2021/08/29 06:51:27;;;;;;;2.60;1.40;;;;;;;;;;10255672;28;20038;-85
2021/08/29 06:56:27;;;;;;;3.43;1.30;;;;;;;;;;10268739;29;20042;-81
2021/08/29 07:01:28;;;;;;;1.30;1.17;;;;;;;;;;10266127;29;20514;-82
2021/08/29 07:06:28;;;;;;;6.97;1.30;;;;;;;;;;10265885;29;20162;-81
2021/08/29 07:11:29;;;;;;;2.17;1.33;;;;;;;;;;10242621;29;20040;-84
2021/08/29 07:16:29;;;;;;;1.20;1.10;;;;;;;;;;10261871;29;20207;-83
2021/08/29 07:21:30;;;;;;;2.40;1.47;;;;;;;;;;10257785;29;20461;-87
2021/08/29 07:26:30;;;;;;;2.17;1.08;;;;;;;;;;10270786;29;20446;-88
2021/08/29 07:31:30;;;;;;;3.87;1.00;;;;;;;;;;10246167;29;20066;-83
2021/08/29 07:36:31;;;;;;;3.30;1.23;;;;;;;;;;10262683;29;20474;-82
2021/08/29 07:41:31;;;;;;;0.95;0.95;;;;;;;;;;10437339;23;20481;-86
2021/08/29 07:46:33;;;;;;;1.90;1.30;;;;;;;;;;10340369;28;20097;-84
2021/08/29 07:51:33;;;;;;;1.77;1.05;;;;;;;;;;10340123;28;20452;-83
2021/08/29 07:56:34;;;;;;;0.73;0.70;;;;;;;;;;10339485;28;20039;-83
2021/08/29 08:01:34;;;;;;;3.03;0.90;;;;;;;;;;10339291;28;20500;-83
2021/08/29 08:06:34;;;;;;;3.78;1.00;;;;;;;;;;10339775;28;20373;-83
2021/08/29 08:11:35;;;;;;;0.77;0.77;;;;;;;;;;10338600;28;20488;-83
2021/08/29 08:16:35;;;;;;;0.80;0.70;;;;;;;;;;10339775;28;20040;-83
2021/08/29 08:21:36;;;;;;;0.90;0.90;;;;;;;;;;10338280;28;21144;-84
2021/08/29 08:26:36;;;;;;;1.10;1.00;;;;;;;;;;10339006;28;20042;-83
2021/08/29 08:31:36;;;;;;;1.23;1.13;;;;;;;;;;10338552;28;20460;-83
2021/08/29 08:36:37;;;;;;;2.30;1.00;;;;;;;;;;10320879;28;20458;-84
2021/08/29 08:41:38;;;;;;;1.73;1.07;;;;;;;;;;10338303;28;20467;-83
2021/08/29 08:46:38;;;;;;;0.80;0.80;;;;;;;;;;10338148;28;20467;-85
2021/08/29 08:51:45;;;;;;;1.20;0.90;;;;;;;;;;10332292;28;20377;-85
2021/08/29 08:56:46;;;;;;;1.60;0.90;;;;;;;;;;10337390;28;20570;-84
2021/08/29 09:01:46;;;;;;;2.38;1.13;;;;;;;;;;10336286;28;20125;-84
2021/08/29 09:06:47;;;;;;;1.30;1.15;;;;;;;;;;10318279;28;20035;-90
2021/08/29 09:11:47;;;;;;;2.13;1.00;;;;;;;;;;10329813;28;20038;-92
2021/08/29 09:16:51;;;;;;;5.50;1.00;;;;;;;;;;10304500;28;20041;-91
2021/08/29 09:21:57;;;;;;;1.45;1.20;;;;;;;;;;10310981;28;20981;-91
2021/08/29 09:27:01;;;;;;;1.35;1.13;;;;;;;;;;10271006;28;20795;-92
2021/08/29 09:32:02;;;;;;;1.30;1.17;;;;;;;;;;10278139;28;20445;-92
2021/08/29 09:37:03;;;;;;;1.08;0.98;;;;;;;;;;10293435;23;20829;-89
2021/08/29 09:42:04;;;;;;;1.80;1.27;;;;;;;;;;10268257;28;20466;-90
2021/08/29 09:47:05;;;;;;;2.13;1.38;;;;;;;;;;10243031;28;20047;-91
2021/08/29 09:52:07;;;;;;;2.10;1.08;;;;;;;;;;10237409;28;20073;-89
2021/08/29 09:57:10;;;;;;;6.35;1.40;;;;;;;;;;10245892;28;20038;-90
2021/08/29 10:02:12;;;;;;;1.40;1.00;;;;;;;;;;10252769;28;20045;-89
2021/08/29 10:07:15;;;;;;;1.33;1.02;;;;;;;;;;10262377;28;20046;-90
2021/08/29 10:12:17;;;;;;;2.17;1.23;;;;;;;;;;10235692;28;20055;-88
2021/08/29 10:17:18;;;;;;;1.67;1.48;;;;;;;;;;10237599;28;20046;-89
2021/08/29 10:22:19;;;;;;;1.67;1.17;;;;;;;;;;10218380;28;20034;-89
2021/08/29 10:27:19;;;;;;;1.57;1.00;;;;;;;;;;10232803;28;20060;-89
2021/08/29 10:32:32;;;;;;;2.22;0.90;;;;;;;;;;10231237;28;20908;-88
2021/08/29 10:37:37;;;;;;;1.30;1.20;;;;;;;;;;10234756;28;20047;-89
2021/08/29 10:42:41;;;;;;;1.88;1.20;;;;;;;;;;10218924;29;20071;-88
2021/08/29 10:47:43;;;;;;;2.97;1.30;;;;;;;;;;10209534;28;20043;-89
2021/08/29 10:52:45;;;;;;;1.75;1.02;;;;;;;;;;10205420;28;20498;-90
2021/08/29 10:57:50;;;;;;;1.10;0.98;;;;;;;;;;10184795;28;20806;-88
2021/08/29 11:02:51;;;;;;;3.35;1.35;;;;;;;;;;10230800;28;20413;-89
2021/08/29 11:07:51;;;;;;;6.60;1.40;;;;;;;;;;10204720;28;20425;-88
2021/08/29 11:12:52;;;;;;;5.95;1.60;;;;;;;;;;10231894;28;20035;-89
2021/08/29 11:18:01;;;;;;;4.20;1.33;;;;;;;;;;10208828;29;20157;-89
2021/08/29 11:23:01;;;;;;;13.02;1.85;;;;;;;;;;10199043;28;20488;-88
2021/08/29 11:28:04;;;;;;;4.33;1.57;;;;;;;;;;10196518;28;20035;-88
2021/08/29 11:33:09;;;;;;;8.52;1.95;;;;;;;;;;10183694;28;20047;-87
2021/08/29 11:38:22;;;;;;;3.15;1.95;;;;;;;;;;10164368;28;20074;-87
2021/08/29 11:43:32;;;;;;;4.95;2.20;;;;;;;;;;10202493;28;20141;-87
2021/08/29 11:48:32;;;;;;;2.00;1.60;;;;;;;;;;10197945;28;20031;-87
2021/08/29 11:53:44;;;;;;;2.08;1.58;;;;;;;;;;10259633;28;20328;-87
2021/08/29 11:58:47;;;;;;;1.85;1.58;;;;;;;;;;10268506;28;20480;-88
2021/08/29 12:03:47;;;;;;;2.78;1.38;;;;;;;;;;10243521;28;20484;-87
2021/08/29 12:08:51;;;;;;;2.45;1.50;;;;;;;;;;10281806;28;20479;-88
2021/08/29 12:13:52;;;;;;;1.42;1.13;;;;;;;;;;10277674;28;20043;-87
2021/08/29 12:18:52;;;;;;;1.90;1.13;;;;;;;;;;10264862;28;20114;-87
2021/08/29 12:23:54;;;;;;;2.88;1.35;;;;;;;;;;10232844;28;20118;-80
2021/08/29 12:29:00;;;;;;;1.38;1.13;;;;;;;;;;10262403;28;20027;-81
2021/08/29 12:34:01;;;;;;;2.45;0.90;;;;;;;;;;10247229;28;20031;-80
2021/08/29 12:39:09;;;;;;;1.65;1.20;;;;;;;;;;10240724;28;20114;-80
2021/08/29 12:44:09;;;;;;;1.75;0.98;;;;;;;;;;10257422;28;20043;-81
2021/08/29 12:49:10;;;;;;;3.30;1.13;;;;;;;;;;10254558;28;20094;-80
2021/08/29 12:54:10;;;;;;;2.13;1.50;;;;;;;;;;10269113;28;20066;-81
2021/08/29 12:59:10;;;;;;;4.57;1.30;;;;;;;;;;10270663;28;20042;-81
2021/08/29 13:04:11;;;;;;;3.30;1.20;;;;;;;;;;10251537;28;20481;-80
2021/08/29 13:09:11;;;;;;;2.20;1.20;;;;;;;;;;10258957;28;20421;-80
2021/08/29 13:14:26;;;;;;;3.17;1.00;;;;;;;;;;10258225;28;20493;-80
2021/08/29 13:19:26;;;;;;;1.35;0.95;;;;;;;;;;10238727;28;20039;-80
2021/08/29 13:24:29;;;;;;;1.30;1.03;;;;;;;;;;10234476;28;20039;-80
2021/08/29 13:29:37;;;;;;;2.05;1.35;;;;;;;;;;10261515;28;20456;-80
2021/08/29 13:34:37;;;;;;;1.63;1.10;;;;;;;;;;10271702;28;20369;-80
2021/08/29 13:39:41;;;;;;;1.98;1.13;;;;;;;;;;10248897;28;20051;-80
2021/08/29 13:44:46;;;;;;;1.90;1.17;;;;;;;;;;10238599;28;20035;-81
2021/08/29 13:49:48;;;;;;;1.55;1.20;;;;;;;;;;10245898;28;20027;-79
2021/08/29 13:54:49;;;;;;;2.05;1.10;;;;;;;;;;10260895;28;20027;-80
2021/08/29 13:59:49;;;;;;;2.22;1.10;;;;;;;;;;10252365;28;20038;-87
2021/08/29 14:04:50;;;;;;;6.33;1.00;;;;;;;;;;10252659;28;20122;-87
2021/08/29 14:09:50;;;;;;;1.83;1.00;;;;;;;;;;10270499;28;20638;-87
2021/08/29 14:14:50;;;;;;;3.17;1.17;;;;;;;;;;10249360;28;20046;-89
2021/08/29 14:19:51;;;;;;;1.50;1.20;;;;;;;;;;10251255;28;20074;-88
2021/08/29 14:24:51;;;;;;;1.47;0.90;;;;;;;;;;10239696;28;20476;-88
2021/08/29 14:29:52;;;;;;;1.37;1.07;;;;;;;;;;10244424;28;20046;-88
2021/08/29 14:34:57;;;;;;;1.08;1.00;;;;;;;;;;10239058;28;20156;-87
2021/08/29 14:39:58;;;;;;;5.80;1.10;;;;;;;;;;10233348;28;20112;-87
2021/08/29 14:44:59;;;;;;;4.22;1.00;;;;;;;;;;10245532;28;20122;-87
2021/08/29 14:49:59;;;;;;;1.83;1.07;;;;;;;;;;10222612;28;20038;-86
2021/08/29 14:55:00;;;;;;;4.65;1.13;;;;;;;;;;10228513;28;20567;-86
2021/08/29 15:00:00;;;;;;;2.92;0.95;;;;;;;;;;10153548;28;20506;-85
2021/08/29 15:05:01;;;;;;;1.30;1.00;;;;;;;;;;10176347;28;20043;-86
2021/08/29 15:10:03;;;;;;;3.80;1.10;;;;;;;;;;10151731;28;20469;-87
2021/08/29 15:15:05;;;;;;;5.47;1.00;;;;;;;;;;10180341;28;20425;-86
2021/08/29 15:20:06;;;;;;;1.50;1.10;;;;;;;;;;10191495;28;20031;-86
2021/08/29 15:25:10;;;;;;;2.95;1.17;;;;;;;;;;10188565;28;20066;-86
2021/08/29 15:30:11;;;;;;;2.05;1.08;;;;;;;;;;10175032;28;20639;-85
2021/08/29 15:35:11;;;;;;;2.35;1.10;;;;;;;;;;10202294;28;20467;-87
2021/08/29 15:40:12;;;;;;;1.10;1.00;;;;;;;;;;10188436;28;20051;-86
2021/08/29 15:45:12;;;;;;;4.88;1.17;;;;;;;;;;10190798;28;20437;-87
2021/08/29 16:54:30;;;;;;;6.68;1.45;;;;;;;;;;10571283;27;20619;-80
2021/08/29 16:59:30;;;;;;;9.13;1.20;;;;;;;;;;10507753;28;20040;-80
2021/08/29 17:04:31;;;;;;;3.55;1.00;;;;;;;;;;10533395;28;20052;-80
2021/08/29 17:09:31;;;;;;;1.97;1.00;;;;;;;;;;10534136;28;20038;-80
2021/08/29 17:14:32;;;;;;;9.35;1.00;;;;;;;;;;10533638;28;20453;-80
2021/08/29 17:19:32;;;;;;;3.53;1.27;;;;;;;;;;10504150;28;20476;-80
2021/08/29 17:24:32;;;;;;;3.03;1.30;;;;;;;;;;10503213;28;20028;-80
2021/08/29 17:29:33;;;;;;;4.35;1.13;;;;;;;;;;10516331;28;20032;-80
2021/08/29 17:34:34;;;;;;;1.57;1.10;;;;;;;;;;10515485;28;20518;-80
2021/08/29 17:39:35;;;;;;;2.10;0.90;;;;;;;;;;10532568;28;20506;-80
2021/08/29 17:44:35;;;;;;;1.23;0.95;;;;;;;;;;10510224;28;20021;-80
2021/08/29 17:49:35;;;;;;;0.93;0.80;;;;;;;;;;10524257;28;20525;-80
2021/08/29 17:54:36;;;;;;;3.20;1.13;;;;;;;;;;10532064;28;20107;-81
2021/08/29 17:59:36;;;;;;;1.20;0.97;;;;;;;;;;10514734;28;20453;-81
2021/08/29 18:04:37;;;;;;;1.30;0.87;;;;;;;;;;10504844;28;20874;-80
2021/08/29 18:09:37;;;;;;;0.93;0.93;;;;;;;;;;10498725;28;20499;-80
2021/08/29 18:14:38;;;;;;;0.80;0.80;;;;;;;;;;10502619;28;20564;-80
2021/08/29 18:19:38;;;;;;;1.15;1.05;;;;;;;;;;10502455;28;20458;-80
2021/08/29 18:24:38;;;;;;;0.80;0.80;;;;;;;;;;10501243;28;20036;-80
2021/08/29 18:29:39;;;;;;;0.93;0.93;;;;;;;;;;10502910;28;20429;-80
2021/08/29 18:34:40;;;;;;;0.90;0.90;;;;;;;;;;10501299;28;20110;-81
2021/08/29 18:39:41;;;;;;;3.40;0.80;;;;;;;;;;10479617;28;20170;-80
2021/08/29 18:44:41;;;;;;;13.57;1.40;;;;;;;;;;10502371;28;20034;-80
2021/08/29 18:49:42;;;;;;;4.30;1.20;;;;;;;;;;10502073;28;20112;-80
2021/08/29 18:54:42;;;;;;;3.35;1.15;;;;;;;;;;10501683;28;20043;-81
2021/08/29 18:59:43;;;;;;;1.57;1.07;;;;;;;;;;10500628;28;20028;-80
2021/08/29 19:04:43;;;;;;;6.30;1.05;;;;;;;;;;10502484;28;20425;-81
2021/08/29 19:09:44;;;;;;;2.20;1.10;;;;;;;;;;10501732;28;20111;-81
2021/08/29 19:14:44;;;;;;;2.47;0.93;;;;;;;;;;10473278;28;20108;-81
2021/08/29 19:19:45;;;;;;;2.67;0.93;;;;;;;;;;10499875;28;20081;-80
2021/08/29 19:24:45;;;;;;;2.20;1.00;;;;;;;;;;10483877;28;20052;-81
2021/08/29 19:29:46;;;;;;;2.70;1.40;;;;;;;;;;10499920;28;20100;-81
2021/08/29 19:34:46;;;;;;;6.82;1.02;;;;;;;;;;10499713;28;20512;-81
2021/08/29 19:39:47;;;;;;;5.38;0.90;;;;;;;;;;10518767;22;20066;-78
2021/08/29 19:44:50;;;;;;;0.83;0.80;;;;;;;;;;10492905;28;20359;-78
2021/08/29 19:49:50;;;;;;;3.60;1.13;;;;;;;;;;10499530;28;20835;-78
2021/08/29 19:54:50;;;;;;;4.47;1.10;;;;;;;;;;10481234;28;20060;-79
2021/08/29 19:59:51;;;;;;;2.88;1.00;;;;;;;;;;10474715;28;20033;-79
2021/08/29 20:04:51;;;;;;;2.20;0.90;;;;;;;;;;10466331;28;20033;-79
2021/08/29 20:09:52;;;;;;;1.55;1.10;;;;;;;;;;10474086;28;20507;-79
2021/08/29 20:14:52;;;;;;;4.30;1.10;;;;;;;;;;10468898;28;20026;-79
2021/08/29 20:19:53;;;;;;;1.23;1.03;;;;;;;;;;10472006;28;20031;-79
2021/08/29 20:24:53;;;;;;;4.40;1.23;;;;;;;;;;10462109;28;20119;-79
2021/08/29 20:29:53;;;;;;;2.67;1.20;;;;;;;;;;10458369;28;20497;-79
2021/08/29 20:34:54;;;;;;;11.30;1.13;;;;;;;;;;10463451;28;20493;-79
2021/08/29 20:39:55;;;;;;;5.72;1.17;;;;;;;;;;10492653;28;20061;-79
2021/08/29 20:44:55;;;;;;;5.63;1.30;;;;;;;;;;10475443;28;20033;-79
2021/08/29 20:49:56;;;;;;;6.10;2.22;;;;;;;;;;10483856;28;20028;-79
2021/08/29 20:54:56;;;;;;;5.40;1.60;;;;;;;;;;10497124;28;20584;-79
2021/08/29 20:59:56;;;;;;;5.53;1.60;;;;;;;;;;10488565;28;20543;-79
2021/08/29 21:04:57;;;;;;;11.40;1.97;;;;;;;;;;10497953;28;20031;-79
2021/08/29 21:09:57;;;;;;;5.70;1.73;;;;;;;;;;10491680;28;20074;-79
2021/08/29 21:15:05;;;;;;;6.00;1.70;;;;;;;;;;10497061;28;20108;-79
2021/08/29 21:20:06;;;;;;;6.90;1.52;;;;;;;;;;10496221;28;20028;-79
2021/08/29 21:25:08;;;;;;;10.23;1.95;;;;;;;;;;10497161;28;20497;-79
2021/08/29 21:30:11;;;;;;;3.95;1.60;;;;;;;;;;10496966;28;20048;-79
2021/08/29 21:35:11;;;;;;;11.25;1.98;;;;;;;;;;10497022;28;20025;-79
2021/08/29 21:40:12;;;;;;;6.13;1.33;;;;;;;;;;10499320;28;20064;-79
2021/08/29 21:45:12;;;;;;;7.80;1.95;;;;;;;;;;10475816;28;20068;-79
2021/08/29 21:50:13;;;;;;;7.37;1.70;;;;;;;;;;10504222;28;20070;-79
2021/08/29 21:55:15;;;;;;;4.38;1.80;;;;;;;;;;10484086;28;20024;-79
2021/08/29 22:00:18;;;;;;;2.88;1.30;;;;;;;;;;10491922;28;20056;-80
2021/08/29 22:05:19;;;;;;;4.97;1.27;;;;;;;;;;10486853;28;20056;-80
2021/08/29 22:10:19;;;;;;;6.38;1.40;;;;;;;;;;10485792;28;20058;-79
2021/08/29 22:15:19;;;;;;;4.50;1.43;;;;;;;;;;10484010;28;20036;-82
2021/08/29 22:20:21;;;;;;;3.57;1.37;;;;;;;;;;10486764;28;20064;-82
2021/08/29 22:25:21;;;;;;;4.18;1.88;;;;;;;;;;10499227;28;20411;-82
2021/08/29 22:30:21;;;;;;;6.23;1.57;;;;;;;;;;10500864;28;20035;-82
2021/08/29 22:35:22;;;;;;;3.87;1.50;;;;;;;;;;10502102;28;20442;-82
2021/08/29 22:40:22;;;;;;;3.93;1.30;;;;;;;;;;10501849;28;20048;-82
2021/08/29 22:45:23;;;;;;;5.30;1.35;;;;;;;;;;10496619;28;20044;-83
2021/08/29 22:50:23;;;;;;;6.43;1.60;;;;;;;;;;10501481;28;20032;-83
2021/08/29 22:55:25;;;;;;;3.60;1.23;;;;;;;;;;10496551;28;20060;-82
2021/08/29 23:00:26;;;;;;;3.95;1.40;;;;;;;;;;10483412;28;20474;-83
2021/08/29 23:05:26;;;;;;;2.33;1.00;;;;;;;;;;10501701;28;20048;-84
2021/08/29 23:10:26;;;;;;;1.58;1.08;;;;;;;;;;10489252;28;20529;-83
2021/08/29 23:15:27;;;;;;;12.97;2.53;;;;;;;;;;10482616;28;20466;-83
2021/08/29 23:20:27;;;;;;;18.83;3.53;;;;;;;;;;10486492;28;20044;-82
2021/08/29 23:25:28;;;;;;;13.82;2.63;;;;;;;;;;10486483;28;20430;-82
2021/08/29 23:30:28;;;;;;;6.97;2.10;;;;;;;;;;10487764;28;20429;-83
2021/08/29 23:35:29;;;;;;;13.95;2.35;;;;;;;;;;10490506;28;20031;-83
2021/08/29 23:40:29;;;;;;;12.37;2.70;;;;;;;;;;10499934;28;20083;-79
2021/08/29 23:45:30;;;;;;;22.38;2.80;;;;;;;;;;10484995;28;20033;-79
2021/08/29 23:50:30;;;;;;;13.35;2.83;;;;;;;;;;10499037;28;20036;-78
2021/08/29 23:55:31;;;;;;;32.37;3.30;;;;;;;;;;10491663;28;20052;-80
